createdAt,value
2023-06-04T00:01:46.160Z,6.05
2023-06-04T00:04:14.277Z,6.25
2023-06-04T00:06:41.545Z,6.93
2023-06-04T00:09:09.212Z,6.25
2023-06-04T00:11:37.804Z,5.80
2023-06-04T00:14:05.152Z,6.60
2023-06-04T00:16:32.635Z,6.32
2023-06-04T00:18:59.932Z,6.20
2023-06-04T00:21:27.724Z,6.18
2023-06-04T00:23:56.081Z,6.28
2023-06-04T00:26:23.979Z,6.20
2023-06-04T00:28:51.965Z,5.40
2023-06-04T00:31:19.810Z,5.60
2023-06-04T00:33:48.914Z,5.80
2023-06-04T00:36:16.641Z,5.93
2023-06-04T00:38:43.965Z,5.43
2023-06-04T00:41:11.231Z,5.57
2023-06-04T00:43:38.465Z,5.82
2023-06-04T00:46:07.836Z,5.72
2023-06-04T00:48:37.996Z,5.32
2023-06-04T00:51:06.108Z,5.13
2023-06-04T00:53:33.939Z,5.47
2023-06-04T00:56:01.309Z,5.30
2023-06-04T00:58:28.980Z,5.15
2023-06-04T01:01:06.855Z,4.60
2023-06-04T01:03:44.215Z,4.78
2023-06-04T01:06:23.240Z,4.43
2023-06-04T01:08:55.650Z,4.63
2023-06-04T01:11:38.568Z,4.72
2023-06-04T01:14:12.007Z,4.70
2023-06-04T01:17:03.937Z,4.20
2023-06-04T01:20:26.640Z,4.50
2023-06-04T01:23:19.191Z,5.03
2023-06-04T01:25:50.774Z,4.25
2023-06-04T01:28:21.752Z,4.38
2023-06-04T01:30:52.001Z,4.70
2023-06-04T01:33:21.747Z,4.50
2023-06-04T01:35:50.652Z,4.47
2023-06-04T01:38:18.260Z,4.22
2023-06-04T01:40:47.526Z,4.30
2023-06-04T01:43:15.625Z,4.78
2023-06-04T01:45:42.887Z,5.05
2023-06-04T01:48:10.217Z,4.85
2023-06-04T01:50:37.621Z,5.18
2023-06-04T01:53:04.978Z,5.15
2023-06-04T01:55:34.930Z,5.18
2023-06-04T01:58:02.970Z,4.60
2023-06-04T02:00:31.140Z,4.57
2023-06-04T02:02:59.158Z,5.20
2023-06-04T02:05:27.515Z,5.20
2023-06-04T02:07:54.775Z,5.05
2023-06-04T02:10:22.398Z,5.05
2023-06-04T02:13:01.594Z,5.00
2023-06-04T02:15:30.404Z,4.80
2023-06-04T02:18:25.957Z,4.85
2023-06-04T02:20:53.500Z,5.40
2023-06-04T02:23:21.962Z,5.25
2023-06-04T02:25:50.682Z,5.43
2023-06-04T02:28:18.216Z,5.60
2023-06-04T02:30:49.484Z,5.40
2023-06-04T02:33:17.247Z,5.05
2023-06-04T02:35:44.639Z,5.68
2023-06-04T02:38:11.983Z,5.40
2023-06-04T02:40:40.714Z,5.88
2023-06-04T02:43:08.056Z,6.05
2023-06-04T02:45:35.700Z,5.65
2023-06-04T02:48:03.136Z,5.43
2023-06-04T02:50:34.906Z,5.38
2023-06-04T02:53:02.305Z,5.30
2023-06-04T02:55:30.191Z,4.68
2023-06-04T02:57:58.788Z,4.93
2023-06-04T03:00:26.737Z,5.32
2023-06-04T03:02:54.341Z,5.22
2023-06-04T03:05:25.464Z,4.85
2023-06-04T03:07:52.713Z,4.80
2023-06-04T03:10:20.168Z,5.07
2023-06-04T03:12:47.470Z,4.78
2023-06-04T03:15:14.805Z,4.78
2023-06-04T03:17:43.552Z,4.38
2023-06-04T03:20:11.681Z,4.88
2023-06-04T03:22:39.474Z,4.93
2023-06-04T03:25:07.574Z,5.28
2023-06-04T03:27:35.701Z,4.82
2023-06-04T03:30:05.716Z,4.68
2023-06-04T03:32:45.068Z,4.70
2023-06-04T03:35:12.890Z,4.40
2023-06-04T03:37:40.136Z,4.32
2023-06-04T03:40:09.186Z,4.65
2023-06-04T03:42:39.829Z,4.65
2023-06-04T03:45:08.722Z,4.38
2023-06-04T03:47:37.540Z,4.55
2023-06-04T03:50:06.461Z,4.45
2023-06-04T03:52:34.861Z,4.90
2023-06-04T03:55:02.780Z,5.03
2023-06-04T03:57:32.271Z,4.55
2023-06-04T04:00:01.299Z,4.82
2023-06-04T04:02:29.727Z,4.93
2023-06-04T04:04:58.199Z,4.28
2023-06-04T04:07:25.664Z,4.60
2023-06-04T04:09:53.842Z,4.50
2023-06-04T04:12:21.875Z,4.35
2023-06-04T04:14:50.633Z,4.60
2023-06-04T04:17:18.512Z,4.90
2023-06-04T04:19:46.562Z,4.30
2023-06-04T04:22:18.223Z,4.07
2023-06-04T04:24:45.621Z,4.40
2023-06-04T04:27:13.038Z,4.20
2023-06-04T04:29:43.747Z,4.72
2023-06-04T04:32:12.266Z,3.83
2023-06-04T04:34:56.286Z,3.80
2023-06-04T04:37:33.722Z,3.97
2023-06-04T04:40:01.589Z,3.75
2023-06-04T04:42:33.063Z,3.75
2023-06-04T04:45:02.458Z,3.67
2023-06-04T04:47:32.138Z,3.67
2023-06-04T04:49:59.441Z,3.42
2023-06-04T04:52:26.823Z,3.58
2023-06-04T04:54:58.583Z,3.30
2023-06-04T04:57:29.109Z,3.47
2023-06-04T04:59:57.693Z,3.45
2023-06-04T05:02:25.348Z,3.20
2023-06-04T05:04:54.587Z,3.30
2023-06-04T05:07:24.470Z,3.40
2023-06-04T05:09:52.241Z,3.85
2023-06-04T05:12:19.765Z,2.83
2023-06-04T05:14:47.094Z,2.92
2023-06-04T05:17:17.656Z,3.10
2023-06-04T05:19:47.159Z,3.13
2023-06-04T05:22:17.028Z,3.00
2023-06-04T05:24:44.750Z,3.42
2023-06-04T05:27:12.852Z,3.05
2023-06-04T05:29:40.248Z,2.85
2023-06-04T05:32:08.165Z,2.95
2023-06-04T05:34:37.848Z,2.70
2023-06-04T05:37:11.497Z,2.80
2023-06-04T05:39:39.803Z,2.65
2023-06-04T05:42:12.677Z,2.80
2023-06-04T05:44:40.733Z,3.15
2023-06-04T05:47:10.235Z,2.63
2023-06-04T05:49:37.859Z,2.45
2023-06-04T05:52:07.037Z,2.63
2023-06-04T05:54:35.514Z,2.90
2023-06-04T05:57:03.956Z,2.25
2023-06-04T05:59:31.842Z,2.58
2023-06-04T06:01:59.770Z,2.30
2023-06-04T06:04:27.496Z,2.47
2023-06-04T06:06:55.158Z,2.35
2023-06-04T06:09:22.778Z,2.30
2023-06-04T06:11:50.118Z,2.03
2023-06-04T06:14:17.494Z,2.08
2023-06-04T06:16:44.789Z,2.30
2023-06-04T06:19:12.228Z,2.28
2023-06-04T06:21:39.768Z,2.03
2023-06-04T06:24:07.391Z,2.20
2023-06-04T06:26:35.625Z,2.40
2023-06-04T06:29:04.249Z,2.55
2023-06-04T06:31:33.329Z,1.92
2023-06-04T06:34:01.133Z,2.20
2023-06-04T06:36:29.667Z,2.38
2023-06-04T06:38:57.871Z,2.20
2023-06-04T06:41:27.239Z,2.13
2023-06-04T06:43:54.648Z,2.28
2023-06-04T06:46:21.911Z,1.83
2023-06-04T06:48:49.829Z,2.08
2023-06-04T06:51:17.830Z,2.00
2023-06-04T06:53:45.536Z,2.20
2023-06-04T06:56:14.641Z,2.28
2023-06-04T06:58:41.973Z,2.15
2023-06-04T07:01:09.458Z,1.80
2023-06-04T07:03:37.168Z,1.90
2023-06-04T07:06:04.647Z,2.10
2023-06-04T07:08:32.306Z,2.13
2023-06-04T07:11:04.776Z,1.95
2023-06-04T07:13:36.240Z,2.00
2023-06-04T07:16:04.174Z,2.00
2023-06-04T07:18:31.411Z,1.90
2023-06-04T07:20:58.779Z,2.10
2023-06-04T07:23:26.860Z,2.15
2023-06-04T07:25:54.858Z,2.10
2023-06-04T07:28:22.361Z,2.13
2023-06-04T07:30:49.727Z,2.20
2023-06-04T07:33:17.352Z,2.40
2023-06-04T07:35:47.726Z,2.10
2023-06-04T07:38:15.028Z,2.00
2023-06-04T07:40:42.655Z,2.42
2023-06-04T07:43:09.935Z,2.28
2023-06-04T07:45:37.433Z,2.10
2023-06-04T07:48:06.389Z,2.00
2023-06-04T07:50:36.099Z,2.28
2023-06-04T07:53:07.960Z,2.15
2023-06-04T07:55:36.405Z,2.20
2023-06-04T07:58:06.279Z,2.08
2023-06-04T08:00:35.765Z,2.17
2023-06-04T08:03:03.356Z,2.30
2023-06-04T08:05:31.676Z,2.00
2023-06-04T08:07:58.936Z,2.28
2023-06-04T08:10:26.136Z,1.92
2023-06-04T08:12:57.396Z,1.95
2023-06-04T08:15:24.769Z,2.20
2023-06-04T08:18:11.949Z,2.10
2023-06-04T08:20:59.148Z,1.90
2023-06-04T08:23:41.972Z,2.17
2023-06-04T08:26:29.136Z,2.10
2023-06-04T08:29:05.893Z,1.90
2023-06-04T08:31:37.823Z,1.90
2023-06-04T08:34:17.518Z,2.25
2023-06-04T08:36:45.258Z,2.10
2023-06-04T08:39:12.520Z,1.90
2023-06-04T08:41:45.550Z,2.10
2023-06-04T08:44:13.619Z,2.10
2023-06-04T08:46:42.424Z,2.00
2023-06-04T08:49:10.714Z,1.88
2023-06-04T08:51:39.265Z,2.20
2023-06-04T08:54:09.085Z,2.10
2023-06-04T08:56:37.790Z,2.10
2023-06-04T08:59:08.933Z,2.45
2023-06-04T09:01:42.755Z,2.20
2023-06-04T09:04:13.134Z,2.47
2023-06-04T09:06:43.478Z,2.30
2023-06-04T09:09:14.256Z,2.20
2023-06-04T09:11:53.150Z,2.20
2023-06-04T09:14:21.327Z,2.20
2023-06-04T09:16:56.690Z,2.15
2023-06-04T09:19:24.179Z,2.42
2023-06-04T09:21:57.320Z,2.50
2023-06-04T09:24:41.280Z,2.38
2023-06-04T09:27:29.015Z,2.30
2023-06-04T09:29:58.049Z,2.40
2023-06-04T09:32:31.801Z,2.38
2023-06-04T09:35:20.660Z,2.10
2023-06-04T09:37:58.655Z,2.38
2023-06-04T09:40:39.677Z,2.47
2023-06-04T09:43:07.271Z,2.40
2023-06-04T09:45:36.661Z,2.42
2023-06-04T09:48:09.479Z,2.53
2023-06-04T09:50:44.530Z,2.30
2023-06-04T09:53:32.337Z,2.33
2023-06-04T09:56:02.564Z,2.72
2023-06-04T09:58:32.424Z,2.83
2023-06-04T10:01:07.618Z,3.00
2023-06-04T10:03:37.948Z,2.88
2023-06-04T10:06:07.606Z,3.00
2023-06-04T10:08:35.678Z,2.83
2023-06-04T10:11:04.362Z,2.80
2023-06-04T10:14:03.206Z,3.00
2023-06-04T10:16:34.886Z,2.72
2023-06-04T10:19:03.245Z,4.07
2023-06-04T10:21:35.890Z,3.08
2023-06-04T10:24:04.217Z,3.70
2023-06-04T10:26:35.526Z,3.10
2023-06-04T10:29:04.191Z,3.10
2023-06-04T10:31:31.790Z,3.00
2023-06-04T10:33:59.444Z,2.72
2023-06-04T10:36:26.939Z,3.20
2023-06-04T10:38:56.853Z,2.88
2023-06-04T10:41:26.177Z,3.17
2023-06-04T10:44:03.155Z,3.22
2023-06-04T10:46:43.958Z,3.00
2023-06-04T10:49:15.878Z,3.10
2023-06-04T10:51:44.814Z,3.20
2023-06-04T10:54:24.780Z,3.17
2023-06-04T10:56:54.684Z,3.40
2023-06-04T10:59:22.777Z,2.92
2023-06-04T11:01:55.330Z,3.30
2023-06-04T11:04:27.000Z,3.33
2023-06-04T11:07:11.880Z,3.42
2023-06-04T11:09:50.111Z,3.25
2023-06-04T11:12:32.705Z,3.40
2023-06-04T11:15:02.207Z,3.40
2023-06-04T11:17:31.582Z,3.13
2023-06-04T11:20:01.291Z,3.35
2023-06-04T11:22:29.876Z,3.20
2023-06-04T11:25:00.553Z,2.92
2023-06-04T11:30:03.466Z,5.10
2023-06-04T11:32:31.720Z,3.33
2023-06-04T11:35:12.000Z,3.15
2023-06-04T11:37:41.569Z,3.47
2023-06-04T11:40:20.872Z,2.72
2023-06-04T11:42:49.955Z,3.05
2023-06-04T11:45:23.411Z,3.45
2023-06-04T11:47:55.117Z,2.97
2023-06-04T11:50:30.142Z,3.20
2023-06-04T11:52:57.587Z,3.10
2023-06-04T11:55:26.458Z,2.92
2023-06-04T11:57:55.660Z,3.20
2023-06-04T12:00:23.457Z,3.10
2023-06-04T12:02:58.608Z,3.08
2023-06-04T12:05:32.565Z,3.53
2023-06-04T12:08:10.698Z,3.70
2023-06-04T12:10:44.081Z,3.10
2023-06-04T12:13:12.372Z,3.33
2023-06-04T12:15:40.618Z,3.30
2023-06-04T12:18:08.016Z,3.47
2023-06-04T12:20:39.474Z,3.22
2023-06-04T12:23:08.448Z,3.17
2023-06-04T12:25:39.194Z,3.05
2023-06-04T12:28:07.262Z,3.20
2023-06-04T12:30:42.136Z,3.30
2023-06-04T12:33:12.969Z,3.53
2023-06-04T12:35:40.247Z,3.20
2023-06-04T12:38:10.650Z,3.35
2023-06-04T12:40:38.762Z,3.05
2023-06-04T12:43:07.740Z,3.15
2023-06-04T12:45:35.477Z,3.40
2023-06-04T12:48:02.819Z,3.00
2023-06-04T12:50:30.013Z,3.10
2023-06-04T12:52:57.856Z,2.90
2023-06-04T12:55:28.100Z,3.10
2023-06-04T12:57:57.000Z,3.00
2023-06-04T13:00:24.543Z,3.13
2023-06-04T13:02:52.420Z,3.40
2023-06-04T13:05:20.150Z,3.00
2023-06-04T13:07:47.351Z,3.30
2023-06-04T13:10:14.545Z,3.13
2023-06-04T13:12:41.741Z,3.40
2023-06-04T13:15:09.644Z,3.10
2023-06-04T13:17:36.966Z,3.28
2023-06-04T13:20:04.796Z,3.25
2023-06-04T13:22:32.016Z,3.10
2023-06-04T13:24:59.462Z,3.55
2023-06-04T13:27:27.328Z,3.15
2023-06-04T13:29:54.862Z,3.28
2023-06-04T13:32:22.525Z,3.53
2023-06-04T13:34:50.343Z,3.67
2023-06-04T13:37:17.838Z,3.15
2023-06-04T13:39:46.143Z,3.00
2023-06-04T13:42:13.882Z,3.40
2023-06-04T13:44:42.025Z,3.70
2023-06-04T13:47:09.533Z,3.33
2023-06-04T13:49:36.880Z,3.30
2023-06-04T13:52:04.209Z,3.50
2023-06-04T13:54:32.860Z,3.40
2023-06-04T13:57:05.168Z,3.15
2023-06-04T13:59:33.373Z,3.10
2023-06-04T14:02:01.597Z,3.22
2023-06-04T14:04:29.094Z,3.13
2023-06-04T14:06:59.583Z,3.22
2023-06-04T14:09:27.009Z,2.92
2023-06-04T14:11:55.507Z,3.20
2023-06-04T14:14:22.849Z,3.03
2023-06-04T14:16:50.442Z,3.08
2023-06-04T14:19:17.967Z,2.97
2023-06-04T14:21:45.742Z,3.28
2023-06-04T14:24:13.430Z,3.35
2023-06-04T14:26:41.574Z,3.22
2023-06-04T14:29:09.758Z,3.55
2023-06-04T14:31:37.213Z,3.03
2023-06-04T14:34:05.100Z,3.38
2023-06-04T14:36:33.183Z,3.20
2023-06-04T14:39:00.885Z,3.22
2023-06-04T14:41:28.651Z,3.22
2023-06-04T14:43:56.548Z,3.30
2023-06-04T14:46:25.148Z,3.15
2023-06-04T14:48:53.053Z,3.10
2023-06-04T14:51:25.404Z,2.88
2023-06-04T14:53:52.772Z,2.97
2023-06-04T14:56:24.572Z,3.03
2023-06-04T14:58:52.147Z,2.90
2023-06-04T15:01:20.073Z,2.85
2023-06-04T15:03:47.625Z,3.20
2023-06-04T15:06:19.505Z,4.75
2023-06-04T15:08:47.682Z,3.67
2023-06-04T15:11:16.707Z,8.25
2023-06-04T15:13:45.164Z,8.43
2023-06-04T15:16:12.998Z,5.80
2023-06-04T15:18:40.749Z,3.80
2023-06-04T15:21:09.114Z,4.40
2023-06-04T15:23:37.864Z,3.38
2023-06-04T15:26:05.205Z,4.90
2023-06-04T15:28:32.642Z,3.42
2023-06-04T15:30:59.974Z,3.40
2023-06-04T15:33:27.200Z,3.67
2023-06-04T15:35:54.914Z,3.20
2023-06-04T15:38:22.799Z,2.83
2023-06-04T15:40:50.540Z,3.03
2023-06-04T15:43:18.021Z,2.83
2023-06-04T15:45:46.544Z,2.88
2023-06-04T15:48:14.805Z,2.67
2023-06-04T15:50:42.293Z,2.97
2023-06-04T15:53:09.471Z,2.90
2023-06-04T15:55:37.093Z,2.90
2023-06-04T15:58:04.817Z,3.28
2023-06-04T16:00:32.575Z,3.00
2023-06-04T16:02:59.932Z,3.08
2023-06-04T16:05:27.482Z,2.95
2023-06-04T16:07:54.843Z,2.67
2023-06-04T16:10:22.263Z,3.40
2023-06-04T16:12:49.704Z,2.95
2023-06-04T16:15:17.150Z,2.85
2023-06-04T16:17:48.035Z,2.70
2023-06-04T16:20:16.946Z,3.00
2023-06-04T16:22:44.235Z,2.90
2023-06-04T16:25:11.709Z,2.70
2023-06-04T16:27:39.451Z,2.38
2023-06-04T16:30:08.446Z,3.33
2023-06-04T16:32:36.263Z,3.72
2023-06-04T16:35:03.988Z,5.13
2023-06-04T16:37:31.813Z,5.20
2023-06-04T16:39:59.855Z,3.95
2023-06-04T16:42:27.323Z,3.38
2023-06-04T16:44:54.900Z,2.60
2023-06-04T16:47:22.851Z,2.45
2023-06-04T16:49:50.655Z,2.67
2023-06-04T16:52:18.239Z,2.85
2023-06-04T16:54:47.371Z,2.40
2023-06-04T16:57:15.529Z,2.42
2023-06-04T16:59:47.307Z,2.10
2023-06-04T17:02:15.953Z,2.80
2023-06-04T17:04:44.611Z,2.70
2023-06-04T17:07:12.356Z,2.53
2023-06-04T17:09:39.809Z,2.28
2023-06-04T17:12:09.148Z,2.58
2023-06-04T17:14:37.123Z,2.63
2023-06-04T17:17:05.262Z,2.15
2023-06-04T17:19:33.035Z,2.63
2023-06-04T17:22:05.600Z,2.20
2023-06-04T17:24:33.147Z,2.25
2023-06-04T17:27:00.524Z,2.05
2023-06-04T17:29:28.150Z,2.17
2023-06-04T17:31:55.913Z,2.50
2023-06-04T17:34:23.514Z,2.40
2023-06-04T17:36:51.138Z,2.35
2023-06-04T17:39:18.631Z,2.20
2023-06-04T17:41:46.675Z,2.10
2023-06-04T17:44:15.098Z,2.17
2023-06-04T17:46:42.666Z,2.22
2023-06-04T17:49:11.094Z,1.95
2023-06-04T17:51:38.417Z,1.90
2023-06-04T17:54:06.408Z,2.20
2023-06-04T17:56:37.395Z,2.38
2023-06-04T17:59:07.911Z,2.17
2023-06-04T18:01:35.606Z,2.20
2023-06-04T18:04:05.660Z,2.15
2023-06-04T18:06:33.107Z,1.98
2023-06-04T18:09:00.566Z,2.28
2023-06-04T18:11:28.441Z,2.50
2023-06-04T18:13:56.100Z,2.17
2023-06-04T18:16:23.551Z,2.22
2023-06-04T18:18:50.896Z,2.30
2023-06-04T18:21:18.139Z,2.10
2023-06-04T18:23:50.913Z,2.90
2023-06-04T18:26:19.448Z,2.80
2023-06-04T18:28:46.866Z,2.92
2023-06-04T18:31:14.325Z,2.60
2023-06-04T18:33:53.859Z,4.28
2023-06-04T18:36:21.887Z,2.45
2023-06-04T18:38:49.873Z,4.30
2023-06-04T18:41:17.873Z,3.47
2023-06-04T18:43:45.482Z,2.70
2023-06-04T18:46:13.109Z,2.53
2023-06-04T18:48:41.856Z,2.00
2023-06-04T18:51:09.301Z,2.47
2023-06-04T18:53:36.848Z,2.08
2023-06-04T18:56:04.632Z,1.88
2023-06-04T18:58:32.566Z,2.10
2023-06-04T19:01:00.357Z,2.25
2023-06-04T19:03:28.019Z,1.75
2023-06-04T19:05:55.505Z,2.20
2023-06-04T19:08:22.975Z,2.00
2023-06-04T19:10:53.091Z,1.88
2023-06-04T19:13:20.726Z,1.95
2023-06-04T19:15:50.381Z,2.08
2023-06-04T19:18:24.288Z,1.95
2023-06-04T19:20:54.877Z,2.10
2023-06-04T19:23:22.123Z,2.20
2023-06-04T19:25:49.430Z,1.95
2023-06-04T19:28:16.875Z,2.75
2023-06-04T19:30:45.266Z,2.10
2023-06-04T19:33:13.470Z,2.13
2023-06-04T19:35:41.336Z,2.30
2023-06-04T19:38:08.711Z,2.50
2023-06-04T19:40:36.490Z,2.30
2023-06-04T19:43:04.125Z,2.00
2023-06-04T19:45:31.640Z,2.15
2023-06-04T19:47:59.706Z,2.40
2023-06-04T19:50:27.509Z,2.20
2023-06-04T19:52:54.691Z,3.60
2023-06-04T19:55:22.155Z,2.10
2023-06-04T19:57:50.243Z,2.72
2023-06-04T20:00:17.985Z,2.10
2023-06-04T20:02:46.051Z,1.88
2023-06-04T20:05:15.964Z,1.92
2023-06-04T20:07:44.334Z,2.10
2023-06-04T20:10:11.942Z,2.15
2023-06-04T20:12:39.472Z,2.20
2023-06-04T20:15:08.559Z,2.47
2023-06-04T20:17:35.865Z,2.85
2023-06-04T20:20:03.384Z,2.63
2023-06-04T20:22:33.631Z,2.90
2023-06-04T20:25:02.015Z,2.63
2023-06-04T20:27:29.499Z,2.45
2023-06-04T20:29:56.861Z,2.10
2023-06-04T20:32:24.639Z,2.05
2023-06-04T20:34:52.173Z,2.10
2023-06-04T20:37:19.688Z,2.30
2023-06-04T20:39:50.114Z,2.03
2023-06-04T20:42:17.672Z,2.20
2023-06-04T20:44:45.568Z,2.28
2023-06-04T20:47:13.116Z,2.30
2023-06-04T20:49:40.412Z,2.30
2023-06-04T20:52:07.870Z,2.33
2023-06-04T20:54:35.909Z,2.10
2023-06-04T20:57:08.039Z,2.38
2023-06-04T20:59:36.050Z,2.05
2023-06-04T21:02:04.702Z,2.47
2023-06-04T21:04:32.394Z,2.33
2023-06-04T21:06:59.714Z,2.38
2023-06-04T21:09:27.232Z,2.50
2023-06-04T21:11:54.772Z,2.55
2023-06-04T21:14:22.493Z,2.67
2023-06-04T21:16:50.143Z,2.60
2023-06-04T21:19:17.760Z,2.30
2023-06-04T21:21:45.013Z,2.70
2023-06-04T21:24:12.370Z,2.63
2023-06-04T21:26:39.993Z,3.05
2023-06-04T21:29:07.719Z,2.60
2023-06-04T21:31:35.519Z,2.90
2023-06-04T21:34:03.127Z,2.22
2023-06-04T21:36:34.782Z,2.30
2023-06-04T21:39:02.369Z,2.40
2023-06-04T21:41:30.702Z,2.58
2023-06-04T21:43:58.283Z,2.47
2023-06-04T21:46:27.317Z,2.00
2023-06-04T21:48:54.694Z,2.40
2023-06-04T21:51:22.179Z,2.63
2023-06-04T21:53:50.271Z,2.60
2023-06-04T21:56:17.755Z,3.08
2023-06-04T21:58:46.006Z,2.45
2023-06-04T22:01:13.746Z,2.30
2023-06-04T22:03:42.217Z,2.92
2023-06-04T22:06:09.705Z,2.50
2023-06-04T22:08:36.994Z,2.40
2023-06-04T22:11:04.568Z,2.80
2023-06-04T22:13:32.117Z,2.85
2023-06-04T22:15:59.470Z,2.55
2023-06-04T22:18:28.795Z,2.90
2023-06-04T22:21:00.704Z,2.53
2023-06-04T22:23:28.551Z,2.78
2023-06-04T22:25:56.588Z,2.75
2023-06-04T22:28:24.304Z,3.08
2023-06-04T22:30:51.749Z,2.85
2023-06-04T22:33:19.047Z,2.60
2023-06-04T22:35:46.363Z,2.95
2023-06-04T22:38:13.872Z,2.40
2023-06-04T22:40:42.114Z,2.58
2023-06-04T22:43:09.842Z,2.67
2023-06-04T22:45:37.152Z,3.03
2023-06-04T22:48:04.922Z,2.80
2023-06-04T22:50:32.291Z,2.95
2023-06-04T22:52:59.756Z,2.45
2023-06-04T22:55:27.416Z,2.20
2023-06-04T22:57:55.588Z,2.30
2023-06-04T23:00:23.201Z,2.53
2023-06-04T23:02:51.360Z,2.45
2023-06-04T23:05:21.147Z,2.58
2023-06-04T23:07:49.610Z,2.20
2023-06-04T23:10:17.547Z,2.50
2023-06-04T23:12:46.743Z,2.50
2023-06-04T23:15:24.937Z,2.30
2023-06-04T23:17:53.258Z,2.30
2023-06-04T23:20:20.959Z,2.10
2023-06-04T23:22:48.271Z,2.60
2023-06-04T23:25:19.237Z,2.33
2023-06-04T23:27:46.700Z,2.60
2023-06-04T23:30:15.192Z,2.55
2023-06-04T23:32:42.471Z,2.80
2023-06-04T23:35:10.070Z,2.30
2023-06-04T23:37:38.333Z,2.38
2023-06-04T23:40:07.507Z,2.85
2023-06-04T23:42:35.691Z,3.30
2023-06-04T23:45:03.666Z,3.10
2023-06-04T23:47:31.565Z,2.67
2023-06-04T23:49:59.210Z,2.50
2023-06-04T23:52:26.450Z,2.40
2023-06-04T23:54:54.280Z,2.38
2023-06-04T23:57:22.237Z,2.42
2023-06-04T23:59:49.736Z,2.38
